createdAt,value
2023-05-04T00:00:49.400Z,28.00
2023-05-04T00:03:21.313Z,32.20
2023-05-04T00:05:53.287Z,30.70
2023-05-04T00:08:24.905Z,33.00
2023-05-04T00:10:57.360Z,38.90
2023-05-04T00:13:29.233Z,32.20
2023-05-04T00:16:00.946Z,31.20
2023-05-04T00:18:32.953Z,37.10
2023-05-04T00:21:04.682Z,36.30
2023-05-04T00:23:36.394Z,32.40
2023-05-04T00:26:08.188Z,34.10
2023-05-04T00:28:40.417Z,37.50
2023-05-04T00:31:12.293Z,45.30
2023-05-04T00:33:43.936Z,43.40
2023-05-04T00:36:15.743Z,35.50
2023-05-04T00:38:52.259Z,37.20
2023-05-04T00:41:24.361Z,33.70
2023-05-04T00:43:56.388Z,36.70
2023-05-04T00:46:29.198Z,31.20
2023-05-04T00:49:02.416Z,33.20
2023-05-04T00:51:34.676Z,32.70
2023-05-04T00:54:06.598Z,31.50
2023-05-04T00:56:42.257Z,34.10
2023-05-04T00:59:14.490Z,33.40
2023-05-04T01:01:46.189Z,30.60
2023-05-04T01:04:18.616Z,38.80
2023-05-04T01:07:00.410Z,33.60
2023-05-04T01:09:37.393Z,38.50
2023-05-04T01:12:13.883Z,33.60
2023-05-04T01:14:47.762Z,31.10
2023-05-04T01:17:19.619Z,32.00
2023-05-04T01:19:53.982Z,34.10
2023-05-04T01:22:26.665Z,41.60
2023-05-04T01:24:59.674Z,38.70
2023-05-04T01:27:38.585Z,29.80
2023-05-04T01:30:17.896Z,35.60
2023-05-04T01:32:50.901Z,39.90
2023-05-04T01:35:23.204Z,37.30
2023-05-04T01:37:55.910Z,32.10
2023-05-04T01:42:58.314Z,39.70
2023-05-04T01:45:30.908Z,32.70
2023-05-04T01:48:02.678Z,46.10
2023-05-04T01:50:34.847Z,49.60
2023-05-04T01:53:07.782Z,41.10
2023-05-04T01:55:39.471Z,43.70
2023-05-04T01:58:11.278Z,40.60
2023-05-04T02:00:43.024Z,34.00
2023-05-04T02:03:14.860Z,43.50
2023-05-04T02:08:18.277Z,47.20
2023-05-04T02:10:50.209Z,43.10
2023-05-04T02:13:22.004Z,42.60
2023-05-04T02:15:53.814Z,31.90
2023-05-04T02:18:25.576Z,49.00
2023-05-04T02:20:57.335Z,47.60
2023-05-04T02:23:29.662Z,38.60
2023-05-04T02:26:03.518Z,40.90
2023-05-04T02:28:35.676Z,42.40
2023-05-04T02:31:08.089Z,38.60
2023-05-04T02:33:40.323Z,46.70
2023-05-04T02:36:13.457Z,42.80
2023-05-04T02:38:45.120Z,42.60
2023-05-04T02:41:16.885Z,42.50
2023-05-04T02:43:49.759Z,54.90
2023-05-04T02:46:21.718Z,39.50
2023-05-04T02:48:53.571Z,38.70
2023-05-04T02:51:25.220Z,43.70
2023-05-04T02:53:57.012Z,36.70
2023-05-04T02:56:28.767Z,47.10
2023-05-04T02:59:00.612Z,42.30
2023-05-04T03:01:34.175Z,40.90
2023-05-04T03:04:08.054Z,49.70
2023-05-04T03:06:39.879Z,44.10
2023-05-04T03:09:12.451Z,44.30
2023-05-04T03:11:44.297Z,43.60
2023-05-04T03:14:16.238Z,31.10
2023-05-04T03:16:48.041Z,48.30
2023-05-04T03:19:22.412Z,44.60
2023-05-04T03:21:54.159Z,44.50
2023-05-04T03:24:26.231Z,53.50
2023-05-04T03:26:57.854Z,45.50
2023-05-04T03:29:30.051Z,48.20
2023-05-04T03:32:02.235Z,43.40
2023-05-04T03:34:34.282Z,40.50
2023-05-04T03:37:08.105Z,42.90
2023-05-04T03:39:40.118Z,49.70
2023-05-04T03:42:13.057Z,43.00
2023-05-04T03:44:46.501Z,44.20
2023-05-04T03:49:48.686Z,45.70
2023-05-04T03:52:20.531Z,41.20
2023-05-04T03:54:52.306Z,33.10
2023-05-04T03:57:24.706Z,46.80
2023-05-04T03:59:57.908Z,49.20
2023-05-04T04:02:30.654Z,35.10
2023-05-04T04:05:02.947Z,41.70
2023-05-04T04:07:34.726Z,52.20
2023-05-04T04:10:07.705Z,48.60
2023-05-04T04:12:39.482Z,45.40
2023-05-04T04:15:12.266Z,47.70
2023-05-04T04:17:44.160Z,50.90
2023-05-04T04:20:17.588Z,51.80
2023-05-04T04:22:49.262Z,45.00
2023-05-04T04:25:21.316Z,47.20
2023-05-04T04:27:53.269Z,51.20
2023-05-04T04:30:24.981Z,48.30
2023-05-04T04:32:57.286Z,44.00
2023-05-04T04:35:29.066Z,47.70
2023-05-04T04:38:03.408Z,48.80
2023-05-04T04:40:35.959Z,50.00
2023-05-04T04:43:07.646Z,36.00
2023-05-04T04:45:41.210Z,44.70
2023-05-04T04:48:14.092Z,52.50
2023-05-04T04:53:16.276Z,61.80
2023-05-04T04:55:48.244Z,50.90
2023-05-04T04:58:19.904Z,52.00
2023-05-04T05:00:52.198Z,53.60
2023-05-04T05:03:24.013Z,51.30
2023-05-04T05:05:56.336Z,45.80
2023-05-04T05:08:28.140Z,45.10
2023-05-04T05:11:00.178Z,47.70
2023-05-04T05:13:33.384Z,47.90
2023-05-04T05:16:05.970Z,47.30
2023-05-04T05:21:09.156Z,42.00
2023-05-04T05:26:11.288Z,48.10
2023-05-04T05:28:43.253Z,33.10
2023-05-04T05:31:15.030Z,36.10
2023-05-04T05:33:46.783Z,46.20
2023-05-04T05:36:18.692Z,27.20
2023-05-04T05:38:50.705Z,38.70
2023-05-04T05:41:23.113Z,29.20
2023-05-04T05:43:54.760Z,44.40
2023-05-04T05:46:28.016Z,36.30
2023-05-04T05:49:00.123Z,34.50
2023-05-04T05:51:31.980Z,41.50
2023-05-04T05:54:03.791Z,40.40
2023-05-04T05:56:35.611Z,34.20
2023-05-04T05:59:07.358Z,31.70
2023-05-04T06:01:39.480Z,33.20
2023-05-04T06:04:11.533Z,39.10
2023-05-04T06:06:45.810Z,35.30
2023-05-04T06:09:18.398Z,38.30
2023-05-04T06:11:50.391Z,27.40
2023-05-04T06:14:22.121Z,27.20
2023-05-04T06:16:53.960Z,34.70
2023-05-04T06:19:26.641Z,29.20
2023-05-04T06:24:29.848Z,27.10
2023-05-04T06:27:02.404Z,21.30
2023-05-04T06:29:34.185Z,27.80
2023-05-04T06:32:06.985Z,19.10
2023-05-04T06:34:38.996Z,23.40
2023-05-04T06:37:12.976Z,28.00
2023-05-04T06:39:46.304Z,27.50
2023-05-04T06:42:18.277Z,24.10
2023-05-04T06:44:53.508Z,26.30
2023-05-04T06:47:25.405Z,17.00
2023-05-04T06:49:58.049Z,18.70
2023-05-04T06:55:02.098Z,24.90
2023-05-04T06:57:33.863Z,22.90
2023-05-04T07:00:08.286Z,21.40
2023-05-04T07:02:39.983Z,26.60
2023-05-04T07:05:12.484Z,23.60
2023-05-04T07:07:44.234Z,21.60
2023-05-04T07:10:15.974Z,13.40
2023-05-04T07:12:54.410Z,15.20
2023-05-04T07:15:28.550Z,11.90
2023-05-04T07:18:01.444Z,10.30
2023-05-04T07:20:33.746Z,13.90
2023-05-04T07:23:05.713Z,9.60
2023-05-04T07:25:37.494Z,7.00
2023-05-04T07:28:09.178Z,10.20
2023-05-04T07:30:41.028Z,10.40
2023-05-04T07:33:13.007Z,11.00
2023-05-04T07:35:44.817Z,7.50
2023-05-04T07:38:16.492Z,8.20
2023-05-04T07:40:48.175Z,13.60
2023-05-04T07:43:20.218Z,12.70
2023-05-04T07:45:53.727Z,7.70
2023-05-04T07:48:26.549Z,11.20
2023-05-04T07:50:59.130Z,13.40
2023-05-04T07:53:30.987Z,9.70
2023-05-04T07:56:11.161Z,10.80
2023-05-04T07:58:43.043Z,10.60
2023-05-04T08:01:15.120Z,10.50
2023-05-04T08:03:46.835Z,5.30
2023-05-04T08:06:18.592Z,13.60
2023-05-04T08:09:00.654Z,13.50
2023-05-04T08:11:38.293Z,15.20
2023-05-04T08:14:10.568Z,9.70
2023-05-04T08:16:42.373Z,10.40
2023-05-04T08:19:14.471Z,6.20
2023-05-04T08:21:46.146Z,7.70
2023-05-04T08:24:19.366Z,11.20
2023-05-04T08:27:03.701Z,8.70
2023-05-04T08:29:39.148Z,9.30
2023-05-04T08:32:11.108Z,9.70
2023-05-04T08:34:43.020Z,6.40
2023-05-04T08:37:14.857Z,9.20
2023-05-04T08:39:47.114Z,12.30
2023-05-04T08:42:29.849Z,8.00
2023-05-04T08:45:01.880Z,15.30
2023-05-04T08:47:33.800Z,6.60
2023-05-04T08:50:07.489Z,9.40
2023-05-04T08:52:44.172Z,6.70
2023-05-04T08:55:17.670Z,14.40
2023-05-04T08:57:51.449Z,7.00
2023-05-04T09:00:24.296Z,10.40
2023-05-04T09:02:56.904Z,12.60
2023-05-04T09:05:29.306Z,12.00
2023-05-04T09:08:01.032Z,8.50
2023-05-04T09:10:34.276Z,7.00
2023-05-04T09:13:06.225Z,10.40
2023-05-04T09:15:38.271Z,8.60
2023-05-04T09:18:10.413Z,8.00
2023-05-04T09:20:49.271Z,7.50
2023-05-04T09:23:22.397Z,12.10
2023-05-04T09:25:55.225Z,6.40
2023-05-04T09:31:08.182Z,9.10
2023-05-04T09:33:41.532Z,10.60
2023-05-04T09:36:18.546Z,8.80
2023-05-04T09:38:50.873Z,13.80
2023-05-04T09:41:34.290Z,17.00
2023-05-04T09:44:06.568Z,9.00
2023-05-04T09:46:38.636Z,8.40
2023-05-04T09:49:10.843Z,9.70
2023-05-04T09:51:43.040Z,8.00
2023-05-04T09:54:17.067Z,9.70
2023-05-04T09:56:53.423Z,8.60
2023-05-04T09:59:31.412Z,12.90
2023-05-04T10:02:14.501Z,8.40
2023-05-04T10:04:58.406Z,9.00
2023-05-04T10:07:32.785Z,9.30
2023-05-04T10:10:05.805Z,16.20
2023-05-04T10:12:37.570Z,11.90
2023-05-04T10:15:12.666Z,10.00
2023-05-04T10:18:02.497Z,11.70
2023-05-04T10:20:54.770Z,10.40
2023-05-04T10:23:47.984Z,14.60
2023-05-04T10:26:42.750Z,12.00
2023-05-04T10:29:23.907Z,12.50
2023-05-04T10:31:56.829Z,11.00
2023-05-04T10:34:30.717Z,9.50
2023-05-04T10:37:04.116Z,9.90
2023-05-04T10:39:36.431Z,9.40
2023-05-04T10:42:09.353Z,9.20
2023-05-04T10:44:53.058Z,16.00
2023-05-04T10:47:33.265Z,12.70
2023-05-04T10:50:06.952Z,13.40
2023-05-04T10:52:50.240Z,9.00
2023-05-04T10:55:23.191Z,12.40
2023-05-04T10:57:56.733Z,14.90
2023-05-04T11:00:39.395Z,17.80
2023-05-04T11:03:12.108Z,11.20
2023-05-04T11:05:45.025Z,9.50
2023-05-04T11:08:21.872Z,12.90
2023-05-04T11:11:03.526Z,16.60
2023-05-04T11:13:37.194Z,14.70
2023-05-04T11:16:09.575Z,11.70
2023-05-04T11:18:42.058Z,7.70
2023-05-04T11:21:13.753Z,11.20
2023-05-04T11:23:45.474Z,9.90
2023-05-04T11:26:17.218Z,15.20
2023-05-04T11:28:49.323Z,10.60
2023-05-04T11:31:23.739Z,9.70
2023-05-04T11:33:56.359Z,12.00
2023-05-04T11:36:28.715Z,11.80
2023-05-04T11:39:00.978Z,12.80
2023-05-04T11:41:32.865Z,14.20
2023-05-04T11:44:06.244Z,13.20
2023-05-04T11:46:38.434Z,15.10
2023-05-04T11:49:10.365Z,12.70
2023-05-04T11:51:42.364Z,12.80
2023-05-04T11:54:23.420Z,10.70
2023-05-04T11:56:56.006Z,8.80
2023-05-04T11:59:27.719Z,9.20
2023-05-04T12:02:00.110Z,11.20
2023-05-04T12:04:35.216Z,11.10
2023-05-04T12:07:10.373Z,15.20
2023-05-04T12:09:49.422Z,7.90
2023-05-04T12:12:22.148Z,10.80
2023-05-04T12:17:25.171Z,16.10
2023-05-04T12:19:58.094Z,12.60
2023-05-04T12:22:35.739Z,14.50
2023-05-04T12:25:11.236Z,10.90
2023-05-04T12:27:44.392Z,9.90
2023-05-04T12:30:16.803Z,7.80
2023-05-04T12:32:48.507Z,13.70
2023-05-04T12:35:20.817Z,12.00
2023-05-04T12:37:53.002Z,11.70
2023-05-04T12:40:28.604Z,12.60
2023-05-04T12:43:00.805Z,9.10
2023-05-04T12:45:32.735Z,11.80
2023-05-04T12:48:04.912Z,11.40
2023-05-04T12:50:36.668Z,15.20
2023-05-04T12:53:08.370Z,16.70
2023-05-04T12:55:41.278Z,11.30
2023-05-04T12:58:13.261Z,10.10
2023-05-04T13:00:46.148Z,10.60
2023-05-04T13:03:18.335Z,11.40
2023-05-04T13:05:50.942Z,9.50
2023-05-04T13:08:23.558Z,12.10
2023-05-04T13:13:28.953Z,9.80
2023-05-04T13:16:00.770Z,14.80
2023-05-04T13:18:32.782Z,13.20
2023-05-04T13:21:04.749Z,8.50
2023-05-04T13:23:36.863Z,10.80
2023-05-04T13:26:08.598Z,31.80
2023-05-04T13:28:40.904Z,14.70
2023-05-04T13:31:12.787Z,16.40
2023-05-04T13:33:45.374Z,13.20
2023-05-04T13:38:47.664Z,15.10
2023-05-04T13:41:19.527Z,17.10
2023-05-04T13:43:51.884Z,16.70
2023-05-04T13:46:24.317Z,23.20
2023-05-04T13:48:57.168Z,21.70
2023-05-04T13:51:29.169Z,29.70
2023-05-04T13:54:02.698Z,20.10
2023-05-04T13:56:34.645Z,15.30
2023-05-04T13:59:06.496Z,10.70
2023-05-04T14:01:38.638Z,16.90
2023-05-04T14:04:10.953Z,18.80
2023-05-04T14:06:43.109Z,12.90
2023-05-04T14:09:15.130Z,15.70
2023-05-04T14:11:47.646Z,11.20
2023-05-04T14:16:49.879Z,12.70
2023-05-04T14:19:21.708Z,11.30
2023-05-04T14:21:53.552Z,12.60
2023-05-04T14:24:26.256Z,10.50
2023-05-04T14:27:07.132Z,11.80
2023-05-04T14:29:39.157Z,12.50
2023-05-04T14:32:11.379Z,15.10
2023-05-04T14:34:43.311Z,9.50
2023-05-04T14:37:15.054Z,11.50
2023-05-04T14:39:47.592Z,12.20
2023-05-04T14:42:19.299Z,15.90
2023-05-04T14:44:51.149Z,12.70
2023-05-04T14:47:22.957Z,12.30
2023-05-04T14:49:54.654Z,11.50
2023-05-04T14:52:26.403Z,8.80
2023-05-04T14:54:58.088Z,10.40
2023-05-04T14:57:29.880Z,11.30
2023-05-04T15:00:07.548Z,18.60
2023-05-04T15:02:40.123Z,7.50
2023-05-04T15:07:44.549Z,11.50
2023-05-04T15:10:16.450Z,19.40
2023-05-04T15:12:48.452Z,14.80
2023-05-04T15:15:20.636Z,10.20
2023-05-04T15:17:52.630Z,16.70
2023-05-04T15:20:24.493Z,12.20
2023-05-04T15:22:56.290Z,11.30
2023-05-04T15:25:28.253Z,12.50
2023-05-04T15:27:59.975Z,11.40
2023-05-04T15:30:31.708Z,14.80
2023-05-04T15:33:05.508Z,18.20
2023-05-04T15:35:38.384Z,13.20
2023-05-04T15:40:40.950Z,18.70
2023-05-04T15:43:13.126Z,9.20
2023-05-04T15:45:44.828Z,12.20
2023-05-04T15:48:16.561Z,8.90
2023-05-04T15:50:48.344Z,11.30
2023-05-04T15:53:20.213Z,13.70
2023-05-04T15:55:52.395Z,19.60
2023-05-04T15:58:24.274Z,32.20
2023-05-04T16:00:56.218Z,8.60
2023-05-04T16:03:28.024Z,10.60
2023-05-04T16:05:59.725Z,12.50
2023-05-04T16:08:31.678Z,11.80
2023-05-04T16:11:04.232Z,9.50
2023-05-04T16:16:08.238Z,13.60
2023-05-04T16:18:40.096Z,13.40
2023-05-04T16:21:14.014Z,9.30
2023-05-04T16:23:46.185Z,11.20
2023-05-04T16:26:18.069Z,12.30
2023-05-04T16:28:49.837Z,11.70
2023-05-04T16:31:22.082Z,12.70
2023-05-04T16:33:54.407Z,15.10
2023-05-04T16:36:26.735Z,11.90
2023-05-04T16:38:58.496Z,11.20
2023-05-04T16:41:30.831Z,8.60
2023-05-04T16:44:02.451Z,16.00
2023-05-04T16:46:34.305Z,12.80
2023-05-04T16:49:08.769Z,18.40
2023-05-04T16:51:43.422Z,9.60
2023-05-04T16:54:16.337Z,12.50
2023-05-04T16:56:48.424Z,11.70
2023-05-04T16:59:20.272Z,7.30
2023-05-04T17:01:52.563Z,10.10
2023-05-04T17:04:25.332Z,13.20
2023-05-04T17:06:57.016Z,10.50
2023-05-04T17:09:28.920Z,13.60
2023-05-04T17:12:00.995Z,16.40
2023-05-04T17:14:33.063Z,11.40
2023-05-04T17:17:04.768Z,9.40
2023-05-04T17:19:39.120Z,19.20
2023-05-04T17:22:11.636Z,14.30
2023-05-04T17:24:45.406Z,9.30
2023-05-04T17:27:17.708Z,9.10
2023-05-04T17:29:49.400Z,12.40
2023-05-04T17:32:21.231Z,10.70
2023-05-04T17:34:52.938Z,14.70
2023-05-04T17:37:24.725Z,7.90
2023-05-04T17:39:56.519Z,10.40
2023-05-04T17:42:29.261Z,26.00
2023-05-04T17:47:31.157Z,12.90
2023-05-04T17:50:03.201Z,4.00
2023-05-04T17:52:35.267Z,10.70
2023-05-04T17:55:08.294Z,8.70
2023-05-04T17:57:40.231Z,17.10
2023-05-04T18:00:14.440Z,9.70
2023-05-04T18:02:47.068Z,11.20
2023-05-04T18:05:19.475Z,13.40
2023-05-04T18:07:51.366Z,10.20
2023-05-04T18:10:23.097Z,14.50
2023-05-04T18:12:56.593Z,9.80
2023-05-04T18:15:28.406Z,11.30
2023-05-04T18:18:00.583Z,13.90
2023-05-04T18:20:32.276Z,15.50
2023-05-04T18:23:03.951Z,11.40
2023-05-04T18:25:37.262Z,14.10
2023-05-04T18:28:10.125Z,15.60
2023-05-04T18:30:41.927Z,14.60
2023-05-04T18:33:14.089Z,11.30
2023-05-04T18:35:46.200Z,12.80
2023-05-04T18:38:17.990Z,16.80
2023-05-04T18:40:53.042Z,23.90
2023-05-04T18:43:24.835Z,15.40
2023-05-04T18:45:56.708Z,17.80
2023-05-04T18:48:28.583Z,11.10
2023-05-04T18:51:01.082Z,14.60
2023-05-04T18:53:33.243Z,119.40
2023-05-04T18:56:06.293Z,124.60
2023-05-04T18:58:38.884Z,130.30
2023-05-04T19:01:10.997Z,103.50
2023-05-04T19:03:44.844Z,59.80
2023-05-04T19:06:16.564Z,63.80
2023-05-04T19:08:48.331Z,63.30
2023-05-04T19:11:20.012Z,38.60
2023-05-04T19:13:51.696Z,27.90
2023-05-04T19:16:23.419Z,28.80
2023-05-04T19:18:55.642Z,25.80
2023-05-04T19:21:28.592Z,19.30
2023-05-04T19:24:00.434Z,26.90
2023-05-04T19:26:32.300Z,20.00
2023-05-04T19:29:04.276Z,27.30
2023-05-04T19:31:36.283Z,18.70
2023-05-04T19:34:08.154Z,41.00
2023-05-04T19:36:39.938Z,17.30
2023-05-04T19:39:11.939Z,17.10
2023-05-04T19:41:43.790Z,10.80
2023-05-04T19:44:15.724Z,12.50
2023-05-04T19:46:51.564Z,16.00
2023-05-04T19:49:24.849Z,21.00
2023-05-04T19:51:56.842Z,18.40
2023-05-04T19:54:28.740Z,20.20
2023-05-04T19:57:00.986Z,21.40
2023-05-04T19:59:32.666Z,18.00
2023-05-04T20:02:04.774Z,18.40
2023-05-04T20:04:36.997Z,15.20
2023-05-04T20:07:08.844Z,19.80
2023-05-04T20:09:40.584Z,21.10
2023-05-04T20:12:12.367Z,18.00
2023-05-04T20:14:44.294Z,17.30
2023-05-04T20:17:15.994Z,16.20
2023-05-04T20:19:48.255Z,16.40
2023-05-04T20:22:20.152Z,23.40
2023-05-04T20:24:51.891Z,21.30
2023-05-04T20:27:26.114Z,17.90
2023-05-04T20:29:57.893Z,19.10
2023-05-04T20:32:31.117Z,17.00
2023-05-04T20:35:03.084Z,14.70
2023-05-04T20:37:34.908Z,21.70
2023-05-04T20:40:08.614Z,20.30
2023-05-04T20:42:40.742Z,18.40
2023-05-04T20:45:13.306Z,16.70
2023-05-04T20:47:45.780Z,24.30
2023-05-04T20:50:18.859Z,17.50
2023-05-04T20:52:50.611Z,19.30
2023-05-04T20:55:22.889Z,21.60
2023-05-04T20:57:54.698Z,18.50
2023-05-04T21:00:26.589Z,19.80
2023-05-04T21:02:58.601Z,13.40
2023-05-04T21:05:30.538Z,19.80
2023-05-04T21:08:02.304Z,24.80
2023-05-04T21:10:34.152Z,28.30
2023-05-04T21:13:06.038Z,21.90
2023-05-04T21:15:38.516Z,23.80
2023-05-04T21:18:10.789Z,21.40
2023-05-04T21:23:13.747Z,17.30
2023-05-04T21:25:45.728Z,19.30
2023-05-04T21:28:17.471Z,22.60
2023-05-04T21:30:49.184Z,18.40
2023-05-04T21:33:20.929Z,21.20
2023-05-04T21:35:52.678Z,21.00
2023-05-04T21:38:24.414Z,15.80
2023-05-04T21:40:56.165Z,20.70
2023-05-04T21:43:28.110Z,18.10
2023-05-04T21:45:59.831Z,18.60
2023-05-04T21:48:32.999Z,18.20
2023-05-04T21:51:04.817Z,23.20
2023-05-04T21:53:36.691Z,11.80
2023-05-04T21:56:12.579Z,15.80
2023-05-04T21:58:44.505Z,19.20
2023-05-04T22:01:18.952Z,14.10
2023-05-04T22:03:52.693Z,18.00
2023-05-04T22:06:25.799Z,17.50
2023-05-04T22:08:57.704Z,21.50
2023-05-04T22:11:29.646Z,20.10
2023-05-04T22:14:01.697Z,11.90
2023-05-04T22:16:33.493Z,19.40
2023-05-04T22:19:05.938Z,15.00
2023-05-04T22:21:39.927Z,18.20
2023-05-04T22:24:11.989Z,20.20
2023-05-04T22:26:43.738Z,19.00
2023-05-04T22:29:15.482Z,21.40
2023-05-04T22:31:47.405Z,19.20
2023-05-04T22:34:19.131Z,31.30
2023-05-04T22:36:51.144Z,27.20
2023-05-04T22:39:22.976Z,30.10
2023-05-04T22:41:54.697Z,36.40
2023-05-04T22:44:26.557Z,24.50
2023-05-04T22:46:58.763Z,32.20
2023-05-04T22:49:30.572Z,23.80
2023-05-04T22:52:02.299Z,29.60
2023-05-04T22:54:34.009Z,22.90
2023-05-04T22:57:06.385Z,31.10
2023-05-04T22:59:38.100Z,22.00
2023-05-04T23:02:09.829Z,22.90
2023-05-04T23:04:42.378Z,12.10
2023-05-04T23:07:14.600Z,18.10
2023-05-04T23:09:47.334Z,18.70
2023-05-04T23:14:52.833Z,23.50
2023-05-04T23:17:24.865Z,21.50
2023-05-04T23:19:56.688Z,17.30
2023-05-04T23:22:28.496Z,17.60
2023-05-04T23:25:02.276Z,19.70
2023-05-04T23:27:33.995Z,15.50
2023-05-04T23:30:06.911Z,15.40
2023-05-04T23:32:39.024Z,21.70
2023-05-04T23:35:14.013Z,16.00
2023-05-04T23:37:45.736Z,22.30
2023-05-04T23:40:17.600Z,19.10
2023-05-04T23:42:52.151Z,11.80
2023-05-04T23:45:23.963Z,16.60
2023-05-04T23:47:55.762Z,22.10
2023-05-04T23:50:27.549Z,16.20
2023-05-04T23:52:59.344Z,18.30
2023-05-04T23:55:31.075Z,18.30
2023-05-04T23:58:02.722Z,23.70
